sensor_id;sensor_type;location;lat;lon;timestamp;pressure;altitude;pressure_sealevel;temperature;humidity
60654;BME280;46476;53.614;10.048;2022-07-04T00:00:23;101498.88;;;21.24;55.29
60654;BME280;46476;53.614;10.048;2022-07-04T00:02:49;101504.38;;;21.24;55.21
60654;BME280;46476;53.614;10.048;2022-07-04T00:05:16;101499.06;;;21.22;55.11
60654;BME280;46476;53.614;10.048;2022-07-04T00:07:44;101500.97;;;21.22;55.48
60654;BME280;46476;53.614;10.048;2022-07-04T00:10:12;101492.72;;;21.22;55.14
60654;BME280;46476;53.614;10.048;2022-07-04T00:12:38;101491.22;;;21.19;55.52
60654;BME280;46476;53.614;10.048;2022-07-04T00:15:04;101496.06;;;21.17;55.39
60654;BME280;46476;53.614;10.048;2022-07-04T00:17:30;101498.41;;;21.14;55.34
60654;BME280;46476;53.614;10.048;2022-07-04T00:19:56;101488.63;;;21.11;55.43
60654;BME280;46476;53.614;10.048;2022-07-04T00:22:21;101492.44;;;21.10;55.50
60654;BME280;46476;53.614;10.048;2022-07-04T00:24:47;101493.28;;;21.10;55.54
60654;BME280;46476;53.614;10.048;2022-07-04T00:27:12;101491.41;;;21.11;55.67
60654;BME280;46476;53.614;10.048;2022-07-04T00:29:37;101488.84;;;21.09;55.61
60654;BME280;46476;53.614;10.048;2022-07-04T00:32:03;101490.34;;;21.12;55.67
60654;BME280;46476;53.614;10.048;2022-07-04T00:34:29;101480.38;;;21.11;55.74
60654;BME280;46476;53.614;10.048;2022-07-04T00:36:54;101482.09;;;21.12;55.88
60654;BME280;46476;53.614;10.048;2022-07-04T00:39:19;101481.00;;;21.13;55.79
60654;BME280;46476;53.614;10.048;2022-07-04T00:41:45;101474.88;;;21.11;55.86
60654;BME280;46476;53.614;10.048;2022-07-04T00:44:12;101478.66;;;21.10;55.90
60654;BME280;46476;53.614;10.048;2022-07-04T00:46:38;101486.94;;;21.10;55.78
60654;BME280;46476;53.614;10.048;2022-07-04T00:49:04;101478.88;;;21.08;55.96
60654;BME280;46476;53.614;10.048;2022-07-04T00:51:31;101484.59;;;21.07;56.05
60654;BME280;46476;53.614;10.048;2022-07-04T00:53:56;101488.59;;;21.04;56.17
60654;BME280;46476;53.614;10.048;2022-07-04T00:56:23;101486.03;;;21.03;56.18
60654;BME280;46476;53.614;10.048;2022-07-04T00:58:49;101484.53;;;21.00;56.20
60654;BME280;46476;53.614;10.048;2022-07-04T01:01:16;101482.84;;;20.99;56.13
60654;BME280;46476;53.614;10.048;2022-07-04T01:03:41;101488.53;;;20.98;56.20
60654;BME280;46476;53.614;10.048;2022-07-04T01:06:07;101484.13;;;20.97;56.53
60654;BME280;46476;53.614;10.048;2022-07-04T01:08:41;101489.41;;;20.98;56.35
60654;BME280;46476;53.614;10.048;2022-07-04T01:11:09;101487.72;;;20.97;56.48
60654;BME280;46476;53.614;10.048;2022-07-04T01:13:35;101500.81;;;20.95;56.74
60654;BME280;46476;53.614;10.048;2022-07-04T01:16:01;101493.81;;;20.92;56.61
60654;BME280;46476;53.614;10.048;2022-07-04T01:18:27;101491.06;;;20.92;56.50
60654;BME280;46476;53.614;10.048;2022-07-04T01:20:52;101492.75;;;20.93;56.50
60654;BME280;46476;53.614;10.048;2022-07-04T01:23:18;101487.47;;;20.92;56.44
60654;BME280;46476;53.614;10.048;2022-07-04T01:25:43;101496.97;;;20.89;56.55
60654;BME280;46476;53.614;10.048;2022-07-04T01:28:09;101490.81;;;20.87;56.61
60654;BME280;46476;53.614;10.048;2022-07-04T01:30:36;101490.81;;;20.87;56.62
60654;BME280;46476;53.614;10.048;2022-07-04T01:33:01;101495.69;;;20.85;56.67
60654;BME280;46476;53.614;10.048;2022-07-04T01:35:27;101489.53;;;20.83;56.70
60654;BME280;46476;53.614;10.048;2022-07-04T01:37:52;101499.03;;;20.81;56.85
60654;BME280;46476;53.614;10.048;2022-07-04T01:40:18;101494.41;;;20.81;56.92
60654;BME280;46476;53.614;10.048;2022-07-04T01:42:43;101492.69;;;20.80;56.97
60654;BME280;46476;53.614;10.048;2022-07-04T01:45:10;101492.69;;;20.80;56.79
60654;BME280;46476;53.614;10.048;2022-07-04T01:47:36;101490.97;;;20.79;56.90
60654;BME280;46476;53.614;10.048;2022-07-04T01:50:04;101490.97;;;20.79;57.03
60654;BME280;46476;53.614;10.048;2022-07-04T01:52:29;101499.25;;;20.79;56.89
60654;BME280;46476;53.614;10.048;2022-07-04T01:54:54;101493.72;;;20.79;56.95
60654;BME280;46476;53.614;10.048;2022-07-04T01:57:20;101493.28;;;20.75;56.83
60654;BME280;46476;53.614;10.048;2022-07-04T01:59:45;101502.56;;;20.74;56.76
60654;BME280;46476;53.614;10.048;2022-07-04T02:02:29;101504.50;;;20.74;56.85
60654;BME280;46476;53.614;10.048;2022-07-04T02:04:54;101510.00;;;20.74;57.09
60654;BME280;46476;53.614;10.048;2022-07-04T02:07:20;101505.53;;;20.73;57.15
60654;BME280;46476;53.614;10.048;2022-07-04T02:09:45;101507.66;;;20.71;56.94
60654;BME280;46476;53.614;10.048;2022-07-04T02:12:11;101511.47;;;20.70;56.88
60654;BME280;46476;53.614;10.048;2022-07-04T02:14:55;101517.13;;;20.68;56.91
60654;BME280;46476;53.614;10.048;2022-07-04T02:17:20;101515.44;;;20.67;56.99
60654;BME280;46476;53.614;10.048;2022-07-04T02:19:46;101506.34;;;20.67;57.02
60654;BME280;46476;53.614;10.048;2022-07-04T02:22:13;101503.59;;;20.67;57.11
60654;BME280;46476;53.614;10.048;2022-07-04T02:24:39;101504.41;;;20.67;57.04
60654;BME280;46476;53.614;10.048;2022-07-04T02:27:04;101509.25;;;20.65;57.11
60654;BME280;46476;53.614;10.048;2022-07-04T02:29:30;101505.88;;;20.63;57.33
60654;BME280;46476;53.614;10.048;2022-07-04T02:31:55;101508.84;;;20.61;57.15
60654;BME280;46476;53.614;10.048;2022-07-04T02:34:21;101501.63;;;20.60;57.17
60654;BME280;46476;53.614;10.048;2022-07-04T02:36:46;101500.75;;;20.60;57.25
60654;BME280;46476;53.614;10.048;2022-07-04T02:39:11;101508.38;;;20.58;57.10
60654;BME280;46476;53.614;10.048;2022-07-04T02:41:37;101509.41;;;20.57;57.17
60654;BME280;46476;53.614;10.048;2022-07-04T02:44:02;101513.00;;;20.57;57.04
60654;BME280;46476;53.614;10.048;2022-07-04T02:46:28;101503.91;;;20.57;57.02
60654;BME280;46476;53.614;10.048;2022-07-04T02:48:53;101506.88;;;20.55;57.03
60654;BME280;46476;53.614;10.048;2022-07-04T02:51:18;101510.66;;;20.54;57.08
60654;BME280;46476;53.614;10.048;2022-07-04T02:53:44;101508.31;;;20.51;56.86
60654;BME280;46476;53.614;10.048;2022-07-04T02:56:09;101511.47;;;20.48;57.09
60654;BME280;46476;53.614;10.048;2022-07-04T02:58:38;101512.50;;;20.47;57.26
60654;BME280;46476;53.614;10.048;2022-07-04T03:01:04;101516.50;;;20.44;57.19
60654;BME280;46476;53.614;10.048;2022-07-04T03:03:29;101515.25;;;20.47;57.07
60654;BME280;46476;53.614;10.048;2022-07-04T03:10:45;101523.91;;;20.44;56.98
60654;BME280;46476;53.614;10.048;2022-07-04T03:13:10;101526.88;;;20.42;56.87
60654;BME280;46476;53.614;10.048;2022-07-04T03:15:35;101519.66;;;20.41;57.12
60654;BME280;46476;53.614;10.048;2022-07-04T03:18:01;101524.50;;;20.39;57.08
60654;BME280;46476;53.614;10.048;2022-07-04T03:20:26;101524.69;;;20.38;57.01
60654;BME280;46476;53.614;10.048;2022-07-04T03:22:53;101532.13;;;20.37;57.03
60654;BME280;46476;53.614;10.048;2022-07-04T03:25:20;101532.94;;;20.38;57.02
60654;BME280;46476;53.614;10.048;2022-07-04T03:27:45;101532.13;;;20.37;57.06
60654;BME280;46476;53.614;10.048;2022-07-04T03:30:11;101529.72;;;20.34;57.13
60654;BME280;46476;53.614;10.048;2022-07-04T03:32:36;101524.44;;;20.33;57.28
60654;BME280;46476;53.614;10.048;2022-07-04T03:35:01;101528.22;;;20.32;57.28
60654;BME280;46476;53.614;10.048;2022-07-04T03:37:27;101527.38;;;20.31;57.17
60654;BME280;46476;53.614;10.048;2022-07-04T03:39:52;101534.13;;;20.28;57.14
60654;BME280;46476;53.614;10.048;2022-07-04T03:42:18;101539.63;;;20.28;57.05
60654;BME280;46476;53.614;10.048;2022-07-04T03:44:43;101541.34;;;20.30;57.25
60654;BME280;46476;53.614;10.048;2022-07-04T03:47:08;101541.34;;;20.30;57.19
60654;BME280;46476;53.614;10.048;2022-07-04T03:49:34;101549.59;;;20.30;57.13
60654;BME280;46476;53.614;10.048;2022-07-04T03:51:59;101542.38;;;20.28;57.20
60654;BME280;46476;53.614;10.048;2022-07-04T03:54:25;101537.75;;;20.29;56.91
60654;BME280;46476;53.614;10.048;2022-07-04T03:56:53;101544.94;;;20.30;57.14
60654;BME280;46476;53.614;10.048;2022-07-04T03:59:18;101546.00;;;20.29;57.17
60654;BME280;46476;53.614;10.048;2022-07-04T04:01:44;101548.09;;;20.27;57.14
60654;BME280;46476;53.614;10.048;2022-07-04T04:04:09;101552.56;;;20.28;57.14
60654;BME280;46476;53.614;10.048;2022-07-04T04:06:53;101555.50;;;20.26;57.32
60654;BME280;46476;53.614;10.048;2022-07-04T04:09:18;101561.00;;;20.26;57.26
60654;BME280;46476;53.614;10.048;2022-07-04T04:11:44;101564.59;;;20.27;57.23
60654;BME280;46476;53.614;10.048;2022-07-04T04:14:10;101570.94;;;20.27;57.22
60654;BME280;46476;53.614;10.048;2022-07-04T04:16:37;101564.59;;;20.27;57.45
60654;BME280;46476;53.614;10.048;2022-07-04T04:19:02;101572.63;;;20.28;57.46
60654;BME280;46476;53.614;10.048;2022-07-04T04:21:28;101560.59;;;20.30;57.32
60654;BME280;46476;53.614;10.048;2022-07-04T04:23:53;101558.69;;;20.30;57.33
60654;BME280;46476;53.614;10.048;2022-07-04T04:26:18;101559.56;;;20.31;56.78
60654;BME280;46476;53.614;10.048;2022-07-04T04:28:44;101567.41;;;20.34;57.09
60654;BME280;46476;53.614;10.048;2022-07-04T04:31:09;101577.31;;;20.28;57.35
60654;BME280;46476;53.614;10.048;2022-07-04T04:33:35;101568.59;;;20.24;57.37
60654;BME280;46476;53.614;10.048;2022-07-04T04:36:01;101572.00;;;20.26;57.33
60654;BME280;46476;53.614;10.048;2022-07-04T04:38:26;101578.13;;;20.28;57.40
60654;BME280;46476;53.614;10.048;2022-07-04T04:40:51;101573.31;;;20.31;57.28
60654;BME280;46476;53.614;10.048;2022-07-04T04:43:16;101572.22;;;20.32;57.27
60654;BME280;46476;53.614;10.048;2022-07-04T04:45:42;101580.13;;;20.35;57.33
60654;BME280;46476;53.614;10.048;2022-07-04T04:48:07;101581.41;;;20.39;57.04
60654;BME280;46476;53.614;10.048;2022-07-04T04:50:32;101586.72;;;20.40;57.17
60654;BME280;46476;53.614;10.048;2022-07-04T04:52:58;101594.75;;;20.42;57.09
60654;BME280;46476;53.614;10.048;2022-07-04T04:55:23;101596.88;;;20.40;56.82
60654;BME280;46476;53.614;10.048;2022-07-04T04:57:48;101593.25;;;20.39;56.79
60654;BME280;46476;53.614;10.048;2022-07-04T05:00:14;101584.84;;;20.41;57.07
60654;BME280;46476;53.614;10.048;2022-07-04T05:02:39;101598.19;;;20.44;56.80
60654;BME280;46476;53.614;10.048;2022-07-04T05:05:05;101593.97;;;20.48;56.53
60654;BME280;46476;53.614;10.048;2022-07-04T05:09:56;101595.50;;;20.51;56.42
60654;BME280;46476;53.614;10.048;2022-07-04T05:12:24;101601.47;;;20.54;56.63
60654;BME280;46476;53.614;10.048;2022-07-04T05:14:50;101601.06;;;20.57;56.48
60654;BME280;46476;53.614;10.048;2022-07-04T05:17:15;101603.88;;;20.64;56.63
60654;BME280;46476;53.614;10.048;2022-07-04T05:19:40;101604.22;;;20.76;56.11
60654;BME280;46476;53.614;10.048;2022-07-04T05:22:06;101604.13;;;20.91;56.31
60654;BME280;46476;53.614;10.048;2022-07-04T05:24:31;101610.81;;;21.03;55.54
60654;BME280;46476;53.614;10.048;2022-07-04T05:26:56;101611.50;;;21.12;55.07
60654;BME280;46476;53.614;10.048;2022-07-04T05:29:22;101617.69;;;21.21;54.93
60654;BME280;46476;53.614;10.048;2022-07-04T05:31:47;101610.72;;;21.25;54.70
60654;BME280;46476;53.614;10.048;2022-07-04T05:34:12;101604.63;;;21.30;54.51
60654;BME280;46476;53.614;10.048;2022-07-04T05:36:37;101613.34;;;21.33;54.50
60654;BME280;46476;53.614;10.048;2022-07-04T05:39:03;101606.56;;;21.36;54.24
60654;BME280;46476;53.614;10.048;2022-07-04T05:41:28;101605.69;;;21.35;53.99
60654;BME280;46476;53.614;10.048;2022-07-04T05:43:54;101611.84;;;21.31;54.06
60654;BME280;46476;53.614;10.048;2022-07-04T05:46:19;101610.13;;;21.30;53.78
60654;BME280;46476;53.614;10.048;2022-07-04T05:48:44;101609.47;;;21.27;53.75
60654;BME280;46476;53.614;10.048;2022-07-04T05:51:10;101608.19;;;21.23;53.66
60654;BME280;46476;53.614;10.048;2022-07-04T05:53:35;101592.06;;;21.20;53.44
60654;BME280;46476;53.614;10.048;2022-07-04T05:56:00;101597.31;;;21.15;53.42
60654;BME280;46476;53.614;10.048;2022-07-04T05:58:25;101601.53;;;21.11;53.77
60654;BME280;46476;53.614;10.048;2022-07-04T06:00:51;101597.75;;;21.12;53.79
60654;BME280;46476;53.614;10.048;2022-07-04T06:03:16;101605.78;;;21.14;53.69
60654;BME280;46476;53.614;10.048;2022-07-04T06:05:41;101611.94;;;21.16;53.91
60654;BME280;46476;53.614;10.048;2022-07-04T06:08:07;101605.38;;;21.17;53.30
60654;BME280;46476;53.614;10.048;2022-07-04T06:10:32;101602.22;;;21.20;52.84
60654;BME280;46476;53.614;10.048;2022-07-04T06:12:58;101611.34;;;21.20;52.84
60654;BME280;46476;53.614;10.048;2022-07-04T06:15:24;101605.84;;;21.20;52.55
60654;BME280;46476;53.614;10.048;2022-07-04T06:17:49;101617.47;;;21.22;52.69
60654;BME280;46476;53.614;10.048;2022-07-04T06:20:14;101614.72;;;21.22;52.67
60654;BME280;46476;53.614;10.048;2022-07-04T06:25:06;101611.63;;;21.32;52.69
60654;BME280;46476;53.614;10.048;2022-07-04T06:27:32;101607.63;;;21.35;52.80
60654;BME280;46476;53.614;10.048;2022-07-04T06:29:57;101604.88;;;21.35;52.41
60654;BME280;46476;53.614;10.048;2022-07-04T06:32:22;101609.31;;;21.36;52.12
60654;BME280;46476;53.614;10.048;2022-07-04T06:34:48;101607.41;;;21.36;52.10
60654;BME280;46476;53.614;10.048;2022-07-04T06:37:31;101606.97;;;21.33;52.31
60654;BME280;46476;53.614;10.048;2022-07-04T06:39:57;101600.41;;;21.34;51.95
60654;BME280;46476;53.614;10.048;2022-07-04T06:42:22;101608.47;;;21.35;51.76
60654;BME280;46476;53.614;10.048;2022-07-04T06:44:47;101612.09;;;21.36;51.71
60654;BME280;46476;53.614;10.048;2022-07-04T06:47:13;101620.34;;;21.36;51.75
60654;BME280;46476;53.614;10.048;2022-07-04T06:49:38;101622.88;;;21.37;51.60
60654;BME280;46476;53.614;10.048;2022-07-04T06:52:03;101620.78;;;21.39;51.71
60654;BME280;46476;53.614;10.048;2022-07-04T06:54:29;101625.66;;;21.37;51.48
60654;BME280;46476;53.614;10.048;2022-07-04T06:56:54;101619.69;;;21.34;51.54
60654;BME280;46476;53.614;10.048;2022-07-04T06:59:19;101618.59;;;21.28;51.43
60654;BME280;46476;53.614;10.048;2022-07-04T07:01:44;101616.66;;;21.22;51.34
60654;BME280;46476;53.614;10.048;2022-07-04T07:04:10;101620.44;;;21.21;51.17
60654;BME280;46476;53.614;10.048;2022-07-04T07:06:35;101609.03;;;21.24;51.47
60654;BME280;46476;53.614;10.048;2022-07-04T07:09:01;101609.47;;;21.27;51.49
60654;BME280;46476;53.614;10.048;2022-07-04T07:11:26;101609.09;;;21.31;51.57
60654;BME280;46476;53.614;10.048;2022-07-04T07:13:51;101604.63;;;21.30;51.62
60654;BME280;46476;53.614;10.048;2022-07-04T07:16:17;101609.91;;;21.31;51.45
60654;BME280;46476;53.614;10.048;2022-07-04T07:18:43;101615.44;;;21.31;51.63
60654;BME280;46476;53.614;10.048;2022-07-04T07:21:08;101610.97;;;21.30;51.66
60654;BME280;46476;53.614;10.048;2022-07-04T07:23:37;101617.13;;;21.32;51.10
60654;BME280;46476;53.614;10.048;2022-07-04T07:26:03;101609.53;;;21.34;51.35
60654;BME280;46476;53.614;10.048;2022-07-04T07:28:28;101619.06;;;21.32;51.59
60654;BME280;46476;53.614;10.048;2022-07-04T07:30:54;101609.09;;;21.31;51.36
60654;BME280;46476;53.614;10.048;2022-07-04T07:33:19;101607.38;;;21.30;51.05
60654;BME280;46476;53.614;10.048;2022-07-04T07:35:44;101612.69;;;21.31;51.47
60654;BME280;46476;53.614;10.048;2022-07-04T07:38:10;101612.88;;;21.30;51.32
60654;BME280;46476;53.614;10.048;2022-07-04T07:40:35;101608.66;;;21.34;51.30
60654;BME280;46476;53.614;10.048;2022-07-04T07:43:00;101606.16;;;21.39;51.10
60654;BME280;46476;53.614;10.048;2022-07-04T07:45:26;101610.41;;;21.41;50.61
60654;BME280;46476;53.614;10.048;2022-07-04T07:47:51;101617.41;;;21.44;50.66
60654;BME280;46476;53.614;10.048;2022-07-04T07:50:16;101623.38;;;21.48;50.81
60654;BME280;46476;53.614;10.048;2022-07-04T07:52:42;101623.38;;;21.48;50.35
60654;BME280;46476;53.614;10.048;2022-07-04T07:55:07;101628.06;;;21.47;50.10
60654;BME280;46476;53.614;10.048;2022-07-04T07:57:33;101628.44;;;21.44;49.83
60654;BME280;46476;53.614;10.048;2022-07-04T07:59:59;101632.88;;;21.38;49.78
60654;BME280;46476;53.614;10.048;2022-07-04T08:02:24;101632.00;;;21.38;49.57
60654;BME280;46476;53.614;10.048;2022-07-04T08:05:09;101621.44;;;21.41;49.14
60654;BME280;46476;53.614;10.048;2022-07-04T08:07:35;101623.59;;;21.46;49.49
60654;BME280;46476;53.614;10.048;2022-07-04T08:10:00;101621.06;;;21.51;49.53
60654;BME280;46476;53.614;10.048;2022-07-04T08:12:26;101627.28;;;21.60;50.04
60654;BME280;46476;53.614;10.048;2022-07-04T08:14:51;101614.03;;;21.77;49.05
60654;BME280;46476;53.614;10.048;2022-07-04T08:17:16;101614.91;;;21.84;49.02
60654;BME280;46476;53.614;10.048;2022-07-04T08:19:41;101617.06;;;21.89;48.67
60654;BME280;46476;53.614;10.048;2022-07-04T08:22:07;101620.41;;;21.84;48.24
60654;BME280;46476;53.614;10.048;2022-07-04T08:24:32;101620.19;;;21.86;47.87
60654;BME280;46476;53.614;10.048;2022-07-04T08:26:57;101610.47;;;21.90;48.34
60654;BME280;46476;53.614;10.048;2022-07-04T08:29:23;101618.78;;;21.97;48.66
60654;BME280;46476;53.614;10.048;2022-07-04T08:31:48;101627.91;;;22.04;48.73
60654;BME280;46476;53.614;10.048;2022-07-04T08:34:13;101623.25;;;22.04;48.14
60654;BME280;46476;53.614;10.048;2022-07-04T08:36:39;101623.50;;;22.09;47.98
60654;BME280;46476;53.614;10.048;2022-07-04T08:39:05;101626.84;;;22.05;47.86
60654;BME280;46476;53.614;10.048;2022-07-04T08:41:36;101629.38;;;22.00;47.46
60654;BME280;46476;53.614;10.048;2022-07-04T08:44:03;101630.03;;;22.02;47.37
60654;BME280;46476;53.614;10.048;2022-07-04T08:46:30;101630.44;;;22.05;47.09
60654;BME280;46476;53.614;10.048;2022-07-04T08:48:58;101628.56;;;22.13;47.56
60654;BME280;46476;53.614;10.048;2022-07-04T08:51:37;101630.53;;;22.25;47.79
60654;BME280;46476;53.614;10.048;2022-07-04T08:54:07;101627.34;;;22.35;47.67
60654;BME280;46476;53.614;10.048;2022-07-04T08:56:54;101634.44;;;22.45;47.44
60654;BME280;46476;53.614;10.048;2022-07-04T08:59:39;101620.22;;;22.48;47.58
60654;BME280;46476;53.614;10.048;2022-07-04T09:02:05;101629.75;;;22.45;47.29
60654;BME280;46476;53.614;10.048;2022-07-04T09:04:32;101627.44;;;22.49;47.44
60654;BME280;46476;53.614;10.048;2022-07-04T09:06:58;101625.09;;;22.52;47.64
60654;BME280;46476;53.614;10.048;2022-07-04T09:09:24;101628.28;;;22.56;48.27
60654;BME280;46476;53.614;10.048;2022-07-04T09:11:50;101629.16;;;22.63;48.91
60654;BME280;46476;53.614;10.048;2022-07-04T09:14:15;101626.38;;;22.70;48.50
60654;BME280;46476;53.614;10.048;2022-07-04T09:16:41;101623.84;;;22.75;48.41
60654;BME280;46476;53.614;10.048;2022-07-04T09:19:19;101624.28;;;22.72;48.43
60654;BME280;46476;53.614;10.048;2022-07-04T09:21:48;101625.13;;;22.79;48.38
60654;BME280;46476;53.614;10.048;2022-07-04T09:24:14;101613.84;;;22.81;47.70
60654;BME280;46476;53.614;10.048;2022-07-04T09:26:44;101610.69;;;22.90;47.71
60654;BME280;46476;53.614;10.048;2022-07-04T09:29:09;101624.25;;;22.99;47.64
60654;BME280;46476;53.614;10.048;2022-07-04T09:31:37;101618.09;;;23.03;47.71
60654;BME280;46476;53.614;10.048;2022-07-04T09:34:04;101618.09;;;23.03;47.38
60654;BME280;46476;53.614;10.048;2022-07-04T09:36:32;101625.31;;;23.11;48.27
60654;BME280;46476;53.614;10.048;2022-07-04T09:41:30;101616.00;;;23.05;46.51
60654;BME280;46476;53.614;10.048;2022-07-04T09:44:02;101615.13;;;23.05;47.50
60654;BME280;46476;53.614;10.048;2022-07-04T09:46:28;101614.94;;;23.13;47.82
60654;BME280;46476;53.614;10.048;2022-07-04T09:48:54;101609.81;;;23.17;46.73
60654;BME280;46476;53.614;10.048;2022-07-04T09:51:39;101607.50;;;23.20;46.32
60654;BME280;46476;53.614;10.048;2022-07-04T09:54:26;101600.66;;;23.30;46.02
60654;BME280;46476;53.614;10.048;2022-07-04T09:56:55;101598.13;;;23.28;46.59
60654;BME280;46476;53.614;10.048;2022-07-04T09:59:23;101609.81;;;23.23;46.46
60654;BME280;46476;53.614;10.048;2022-07-04T10:01:49;101606.41;;;23.28;47.19
60654;BME280;46476;53.614;10.048;2022-07-04T10:04:15;101605.56;;;23.28;46.59
60654;BME280;46476;53.614;10.048;2022-07-04T10:06:41;101611.69;;;23.36;46.27
60654;BME280;46476;53.614;10.048;2022-07-04T10:09:26;101610.81;;;23.49;45.62
60654;BME280;46476;53.614;10.048;2022-07-04T10:11:53;101607.66;;;23.39;45.18
60654;BME280;46476;53.614;10.048;2022-07-04T10:14:18;101605.97;;;23.38;45.52
60654;BME280;46476;53.614;10.048;2022-07-04T10:16:44;101605.53;;;23.41;45.34
60654;BME280;46476;53.614;10.048;2022-07-04T10:19:09;101620.63;;;23.45;45.19
60654;BME280;46476;53.614;10.048;2022-07-04T10:21:35;101613.38;;;23.44;45.08
60654;BME280;46476;53.614;10.048;2022-07-04T10:24:01;101604.47;;;23.42;45.06
60654;BME280;46476;53.614;10.048;2022-07-04T10:26:28;101616.16;;;23.44;45.71
60654;BME280;46476;53.614;10.048;2022-07-04T10:28:55;101613.19;;;23.46;45.66
60654;BME280;46476;53.614;10.048;2022-07-04T10:31:23;101611.25;;;23.46;45.56
60654;BME280;46476;53.614;10.048;2022-07-04T10:33:50;101604.44;;;23.55;44.56
60654;BME280;46476;53.614;10.048;2022-07-04T10:36:19;101617.19;;;23.56;45.11
60654;BME280;46476;53.614;10.048;2022-07-04T10:38:59;101610.81;;;23.63;45.16
60654;BME280;46476;53.614;10.048;2022-07-04T10:41:27;101601.59;;;23.69;45.99
60654;BME280;46476;53.614;10.048;2022-07-04T10:43:55;101601.59;;;23.76;44.87
60654;BME280;46476;53.614;10.048;2022-07-04T10:46:26;101608.19;;;23.75;45.41
60654;BME280;46476;53.614;10.048;2022-07-04T10:49:00;101602.06;;;23.66;44.64
60654;BME280;46476;53.614;10.048;2022-07-04T10:56:41;101593.75;;;23.66;44.47
60654;BME280;46476;53.614;10.048;2022-07-04T10:59:09;101588.03;;;23.61;45.02
60654;BME280;46476;53.614;10.048;2022-07-04T11:01:35;101597.38;;;23.60;44.37
60654;BME280;46476;53.614;10.048;2022-07-04T11:04:00;101590.84;;;23.54;43.74
60654;BME280;46476;53.614;10.048;2022-07-04T11:09:20;101594.88;;;23.51;44.52
60654;BME280;46476;53.614;10.048;2022-07-04T11:12:05;101594.88;;;23.51;44.29
60654;BME280;46476;53.614;10.048;2022-07-04T11:14:41;101594.88;;;23.51;43.78
60654;BME280;46476;53.614;10.048;2022-07-04T11:17:08;101589.56;;;23.50;44.33
60654;BME280;46476;53.614;10.048;2022-07-04T11:19:35;101589.13;;;23.53;43.50
60654;BME280;46476;53.614;10.048;2022-07-04T11:22:01;101583.19;;;23.49;43.70
60654;BME280;46476;53.614;10.048;2022-07-04T11:24:28;101591.66;;;23.54;44.39
60654;BME280;46476;53.614;10.048;2022-07-04T11:26:53;101586.56;;;23.58;44.58
60654;BME280;46476;53.614;10.048;2022-07-04T11:29:19;101593.38;;;23.55;43.76
60654;BME280;46476;53.614;10.048;2022-07-04T11:31:46;101591.47;;;23.49;43.14
60654;BME280;46476;53.614;10.048;2022-07-04T11:34:12;101589.19;;;23.39;43.26
60654;BME280;46476;53.614;10.048;2022-07-04T11:36:39;101593.00;;;23.38;43.57
60654;BME280;46476;53.614;10.048;2022-07-04T11:39:07;101591.28;;;23.37;43.65
60654;BME280;46476;53.614;10.048;2022-07-04T11:41:40;101586.81;;;23.36;44.14
60654;BME280;46476;53.614;10.048;2022-07-04T11:44:26;101579.41;;;23.37;44.19
60654;BME280;46476;53.614;10.048;2022-07-04T11:47:13;101580.66;;;23.41;44.60
60654;BME280;46476;53.614;10.048;2022-07-04T11:49:48;101582.56;;;23.47;44.61
60654;BME280;46476;53.614;10.048;2022-07-04T11:52:14;101574.84;;;23.56;44.94
60654;BME280;46476;53.614;10.048;2022-07-04T11:54:44;101572.09;;;23.63;44.95
60654;BME280;46476;53.614;10.048;2022-07-04T11:57:10;101571.63;;;23.66;44.62
60654;BME280;46476;53.614;10.048;2022-07-04T11:59:36;101568.44;;;23.69;44.46
60654;BME280;46476;53.614;10.048;2022-07-04T12:02:15;101559.28;;;23.68;43.49
60654;BME280;46476;53.614;10.048;2022-07-04T12:04:41;101568.22;;;23.64;43.88
60654;BME280;46476;53.614;10.048;2022-07-04T12:07:12;101566.56;;;23.63;43.86
60654;BME280;46476;53.614;10.048;2022-07-04T12:09:39;101565.47;;;23.64;43.88
60654;BME280;46476;53.614;10.048;2022-07-04T12:12:05;101564.81;;;23.68;44.42
60654;BME280;46476;53.614;10.048;2022-07-04T12:14:30;101545.25;;;23.70;44.10
60654;BME280;46476;53.614;10.048;2022-07-04T12:17:13;101545.47;;;23.68;43.50
60654;BME280;46476;53.614;10.048;2022-07-04T12:19:58;101536.75;;;23.65;43.84
60654;BME280;46476;53.614;10.048;2022-07-04T12:22:42;101537.22;;;23.62;44.04
60654;BME280;46476;53.614;10.048;2022-07-04T12:25:30;101528.69;;;23.63;44.14
60654;BME280;46476;53.614;10.048;2022-07-04T12:27:58;101519.94;;;23.66;44.09
60654;BME280;46476;53.614;10.048;2022-07-04T12:30:29;101519.75;;;23.68;43.93
60654;BME280;46476;53.614;10.048;2022-07-04T12:33:02;101525.94;;;23.63;44.69
60654;BME280;46476;53.614;10.048;2022-07-04T12:35:36;101521.22;;;23.70;44.78
60654;BME280;46476;53.614;10.048;2022-07-04T12:38:04;101529.91;;;23.74;44.40
60654;BME280;46476;53.614;10.048;2022-07-04T12:40:29;101515.66;;;23.77;44.37
60654;BME280;46476;53.614;10.048;2022-07-04T12:42:56;101523.31;;;23.75;44.56
60654;BME280;46476;53.614;10.048;2022-07-04T12:45:22;101523.97;;;23.77;44.33
60654;BME280;46476;53.614;10.048;2022-07-04T12:47:48;101523.50;;;23.80;44.30
60654;BME280;46476;53.614;10.048;2022-07-04T12:50:14;101507.31;;;23.84;43.90
60654;BME280;46476;53.614;10.048;2022-07-04T12:52:40;101513.31;;;23.81;43.63
60654;BME280;46476;53.614;10.048;2022-07-04T12:55:08;101517.38;;;23.78;44.20
60654;BME280;46476;53.614;10.048;2022-07-04T12:57:36;101514.97;;;23.82;44.08
60654;BME280;46476;53.614;10.048;2022-07-04T13:00:02;101519.91;;;23.80;43.46